Home   Weather   France   Dijon   Past weeks
Flag for France

Past Weather in Dijon, Bourgogne-Franche-Comté, France — Yesterday and Last 2 Weeks

Currently: 39 °F. Overcast. (Weather station: Dijon Airport, France). See more current weather

Past Weather in Dijon — Graph

°F

Dijon Temperature Yesterday

Maximum temperature yesterday: 41 °F (at 1:30 pm)
Minimum temperature yesterday: 30 °F (at 1:30 am)
Average temperature yesterday: 36 °F

High & Low Weather Summary for the Past Weeks

 TemperatureHumidityPressure
High45 °F (Jan 18, 2:30 pm)100% (Jan 9, 12:00 am)30.66 "Hg (Jan 9, 12:00 am)
Low19 °F (Jan 14, 7:00 am)52% (Jan 21, 3:30 pm)29.50 "Hg (Jan 8, 11:30 pm)
Average34 °F88%30.41 "Hg
* Reported Jan 8 10:00 am — Jan 23 10:00 am, Dijon. Weather by CustomWeather, © 2022

Note: Actual official high and low records may vary slightly from our data, if they occured in-between our weather recording intervals... More about our weather records

Dijon Weather History for the Previous 24 Hours

Scroll right to see more
 ConditionsComfort  
Time TempWeatherWind HumidityBarometerVisibility
10:00 am
Sun, Jan 23
39 °FScattered clouds.8 mph81%30.54 "HgN/A
9:30 am37 °FOvercast.7 mph81%30.54 "HgN/A
9:00 am37 °FOvercast.8 mph81%30.54 "HgN/A
8:30 am37 °FOvercast.6 mph81%30.54 "HgN/A
8:00 am37 °FOvercast.7 mph87%30.54 "HgN/A
7:30 am37 °FOvercast.6 mph87%30.51 "HgN/A
7:00 am37 °FOvercast.8 mph87%30.51 "HgN/A
6:30 am37 °FOvercast.5 mph87%30.51 "Hg6 mi
6:00 am37 °FOvercast.8 mph87%30.51 "Hg6 mi
5:30 am37 °FOvercast.6 mph87%30.51 "HgN/A
5:00 am37 °FOvercast.7 mph87%30.51 "HgN/A
4:30 am37 °FOvercast.5 mph87%30.51 "HgN/A
4:00 am36 °FOvercast.7 mph87%30.51 "HgN/A
3:30 am36 °FPassing clouds.7 mph87%30.51 "HgN/A
3:00 am36 °FPassing clouds.7 mph87%30.54 "HgN/A
2:30 am36 °FClear.8 mph87%30.51 "Hg10 mi
2:00 am34 °FPassing clouds.7 mph87%30.54 "HgN/A
1:30 am37 °FPassing clouds.6 mph81%30.54 "HgN/A
1:00 am37 °FOvercast.7 mph81%30.54 "HgN/A
12:30 am37 °FOvercast.8 mph87%30.54 "HgN/A
12:00 am37 °FOvercast.8 mph87%30.54 "HgN/A
11:30 pm
Sat, Jan 22
37 °FOvercast.9 mph87%30.57 "HgN/A
11:00 pm37 °FOvercast.8 mph87%30.57 "HgN/A
10:30 pm37 °FOvercast.6 mph87%30.57 "HgN/A
10:00 pm37 °FOvercast.8 mph81%30.57 "HgN/A
9:30 pm34 °FOvercast.7 mph93%30.57 "HgN/A
9:00 pm36 °FPassing clouds.7 mph87%30.57 "HgN/A
8:30 pm36 °FPassing clouds.7 mph87%30.57 "HgN/A
8:00 pm37 °FOvercast.8 mph81%30.57 "HgN/A
7:30 pm37 °FPassing clouds.9 mph81%30.57 "HgN/A
7:00 pm37 °FPassing clouds.5 mph81%30.57 "HgN/A
6:30 pm37 °FPartly cloudy.5 mph81%30.57 "HgN/A
6:00 pm37 °FOvercast.5 mph81%30.57 "HgN/A
5:30 pm37 °FPassing clouds.9 mph81%30.54 "HgN/A
5:00 pm39 °FOvercast.10 mph75%30.54 "HgN/A
4:30 pm39 °FOvercast.12 mph75%30.54 "HgN/A
4:00 pm39 °FOvercast.13 mph75%30.54 "HgN/A
3:30 pm41 °FOvercast.12 mph70%30.54 "HgN/A
3:00 pm39 °FOvercast.10 mph75%30.54 "HgN/A
2:00 pm39 °FOvercast.12 mph75%30.57 "HgN/A
1:30 pm41 °FPartly sunny.10 mph66%30.57 "HgN/A
1:00 pm39 °FOvercast.9 mph70%30.57 "HgN/A
12:30 pm39 °FOvercast.7 mph70%30.57 "HgN/A
12:00 pm37 °FOvercast.7 mph75%30.57 "HgN/A
11:30 am37 °FOvercast.8 mph75%30.57 "HgN/A
11:00 am37 °FOvercast.8 mph81%30.57 "HgN/A
Weather by CustomWeather, © 2022

See weather overview